createdAt,value
2023-04-01T00:00:24.342Z,97190.16
2023-04-01T00:01:27.054Z,97188.56
2023-04-01T00:02:28.962Z,97186.66
2023-04-01T00:03:31.771Z,97180.78
2023-04-01T00:04:33.963Z,97193.44
2023-04-01T00:05:35.976Z,97200.41
2023-04-01T00:06:37.814Z,97188.06
2023-04-01T00:07:41.304Z,97202.31
2023-04-01T00:08:43.516Z,97194.56
2023-04-01T00:09:45.607Z,97193.44
2023-04-01T00:10:47.955Z,97188.69
2023-04-01T00:11:49.715Z,97184.56
2023-04-01T00:12:51.776Z,97186.78
2023-04-01T00:13:54.063Z,97186.00
2023-04-01T00:14:56.062Z,97186.78
2023-04-01T00:15:59.998Z,97191.38
2023-04-01T00:17:02.773Z,97189.81
2023-04-01T00:18:05.598Z,97190.91
2023-04-01T00:19:07.696Z,97182.03
2023-04-01T00:20:10.334Z,97182.03
2023-04-01T00:21:12.201Z,97184.75
2023-04-01T00:22:13.973Z,97186.59
2023-04-01T00:23:17.126Z,97183.13
2023-04-01T00:24:18.936Z,97185.03
2023-04-01T00:25:21.018Z,97188.50
2023-04-01T00:26:23.397Z,97186.94
2023-04-01T00:27:25.772Z,97194.69
2023-04-01T00:28:29.010Z,97192.00
2023-04-01T00:29:31.564Z,97191.84
2023-04-01T00:30:33.650Z,97192.00
2023-04-01T00:31:35.878Z,97194.69
2023-04-01T00:32:38.504Z,97197.38
2023-04-01T00:33:42.091Z,97189.63
2023-04-01T00:34:45.322Z,97196.59
2023-04-01T00:35:47.442Z,97196.13
2023-04-01T00:36:49.270Z,97183.44
2023-04-01T00:37:51.896Z,97194.22
2023-04-01T00:38:53.752Z,97198.00
2023-04-01T00:39:56.040Z,97192.63
2023-04-01T00:40:59.656Z,97194.53
2023-04-01T00:42:03.586Z,97195.97
2023-04-01T00:43:21.330Z,97197.56
2023-04-01T00:44:30.785Z,97193.09
2023-04-01T00:45:36.697Z,97189.94
2023-04-01T00:46:38.622Z,97185.97
2023-04-01T00:47:40.533Z,97186.47
2023-04-01T00:48:52.551Z,97201.19
2023-04-01T00:49:56.013Z,97192.16
2023-04-01T00:51:10.097Z,97192.63
2023-04-01T00:52:18.227Z,97188.34
2023-04-01T00:53:22.167Z,97183.94
2023-04-01T00:54:28.075Z,97187.09
2023-04-01T00:55:36.320Z,97180.91
2023-04-01T00:57:01.542Z,97177.44
2023-04-01T00:58:09.797Z,97177.09
2023-04-01T00:59:22.294Z,97164.13
2023-04-01T01:00:24.313Z,97180.72
2023-04-01T01:01:27.309Z,97179.47
2023-04-01T01:02:29.424Z,97174.41
2023-04-01T01:03:32.073Z,97179.00
2023-04-01T01:04:36.813Z,97175.19
2023-04-01T01:06:31.914Z,97191.38
2023-04-01T01:07:55.673Z,97188.34
2023-04-01T01:09:34.056Z,97176.16
2023-04-01T01:10:39.722Z,97174.88
2023-04-01T01:11:59.255Z,97183.94
2023-04-01T01:13:34.834Z,97178.69
2023-04-01T01:15:35.244Z,97180.16
2023-04-01T01:16:54.975Z,97188.50
2023-04-01T01:18:28.446Z,97185.94
2023-04-01T01:20:25.445Z,97184.88
2023-04-01T01:21:47.594Z,97181.56
2023-04-01T01:23:45.122Z,97179.34
2023-04-01T01:25:28.881Z,97172.97
2023-04-01T01:27:01.632Z,97163.00
2023-04-01T01:28:47.966Z,97177.09
2023-04-01T01:30:17.196Z,97174.06
2023-04-01T01:31:46.356Z,97169.78
2023-04-01T01:33:15.434Z,97169.31
2023-04-01T01:34:35.359Z,97169.94
2023-04-01T01:35:49.509Z,97169.16
2023-04-01T01:37:04.855Z,97174.38
2023-04-01T01:38:19.207Z,97172.16
2023-04-01T01:39:28.837Z,97164.69
2023-04-01T01:40:35.026Z,97170.69
2023-04-01T01:41:42.359Z,97176.41
2023-04-01T01:42:55.796Z,97168.16
2023-04-01T01:44:00.936Z,97164.22
2023-04-01T01:45:06.356Z,97169.13
2023-04-01T01:46:16.977Z,97180.34
2023-04-01T01:47:23.078Z,97175.91
2023-04-01T01:48:28.748Z,97179.09
2023-04-01T01:49:34.810Z,97174.50
2023-04-01T01:50:37.589Z,97171.31
2023-04-01T01:51:40.800Z,97169.44
2023-04-01T01:52:42.638Z,97178.59
2023-04-01T01:53:44.905Z,97168.63
2023-04-01T01:54:56.523Z,97167.22
2023-04-01T01:55:58.367Z,97163.25
2023-04-01T01:57:11.307Z,97166.91
2023-04-01T01:58:41.684Z,97163.75
2023-04-01T01:59:48.510Z,97160.41
2023-04-01T02:00:59.833Z,97165.31
2023-04-01T02:02:08.801Z,97169.44
2023-04-01T02:03:14.002Z,97165.94
2023-04-01T02:04:18.601Z,97161.66
2023-04-01T02:05:25.572Z,97160.25
2023-04-01T02:06:33.647Z,97164.84
2023-04-01T02:07:40.547Z,97164.84
2023-04-01T02:08:49.914Z,97151.84
2023-04-01T02:09:52.678Z,97159.78
2023-04-01T02:11:06.036Z,97161.03
2023-04-01T02:12:14.034Z,97149.47
2023-04-01T02:13:37.083Z,97153.44
2023-04-01T02:14:52.920Z,97155.34
2023-04-01T02:16:01.171Z,97165.94
2023-04-01T02:17:10.498Z,97159.47
2023-04-01T02:18:15.510Z,97161.66
2023-04-01T02:19:23.666Z,97171.16
2023-04-01T02:20:28.064Z,97160.41
2023-04-01T02:21:33.523Z,97160.88
2023-04-01T02:22:42.617Z,97159.28
2023-04-01T02:23:46.198Z,97163.69
2023-04-01T02:24:51.774Z,97163.69
2023-04-01T02:25:54.901Z,97161.00
2023-04-01T02:26:56.896Z,97157.22
2023-04-01T02:28:01.595Z,97156.41
2023-04-01T02:29:06.801Z,97158.78
2023-04-01T02:30:09.739Z,97165.91
2023-04-01T02:31:13.656Z,97157.84
2023-04-01T02:32:18.502Z,97156.72
2023-04-01T02:33:22.944Z,97162.13
2023-04-01T02:34:26.420Z,97158.94
2023-04-01T02:35:28.506Z,97156.25
2023-04-01T02:36:30.971Z,97163.84
2023-04-01T02:37:34.359Z,97157.34
2023-04-01T02:38:38.190Z,97165.44
2023-04-01T02:39:41.124Z,97163.06
2023-04-01T02:40:50.665Z,97152.13
2023-04-01T02:41:52.925Z,97140.13
2023-04-01T02:42:54.810Z,97167.31
2023-04-01T02:43:58.276Z,97166.53
2023-04-01T02:45:00.157Z,97170.03
2023-04-01T02:46:02.739Z,97156.88
2023-04-01T02:47:04.802Z,97164.97
2023-04-01T02:48:07.261Z,97163.06
2023-04-01T02:49:09.300Z,97165.28
2023-04-01T02:50:11.836Z,97164.97
2023-04-01T02:51:13.627Z,97172.72
2023-04-01T02:52:15.567Z,97176.03
2023-04-01T02:53:17.970Z,97175.25
2023-04-01T02:54:20.411Z,97171.44
2023-04-01T02:55:22.163Z,97169.84
2023-04-01T02:56:24.482Z,97163.66
2023-04-01T02:57:26.648Z,97159.34
2023-04-01T02:58:28.471Z,97170.94
2023-04-01T02:59:30.267Z,97158.56
2023-04-01T03:00:32.381Z,97157.78
2023-04-01T03:01:34.456Z,97153.97
2023-04-01T03:02:37.336Z,97152.91
2023-04-01T03:03:39.245Z,97153.97
2023-04-01T03:04:41.422Z,97160.19
2023-04-01T03:05:43.260Z,97155.06
2023-04-01T03:06:45.235Z,97152.38
2023-04-01T03:07:47.145Z,97156.97
2023-04-01T03:08:49.154Z,97155.88
2023-04-01T03:09:51.528Z,97159.09
2023-04-01T03:10:53.397Z,97162.34
2023-04-01T03:11:55.722Z,97156.50
2023-04-01T03:12:57.613Z,97171.53
2023-04-01T03:13:59.493Z,97161.56
2023-04-01T03:15:11.329Z,97158.88
2023-04-01T03:16:13.644Z,97154.59
2023-04-01T03:17:15.988Z,97157.28
2023-04-01T03:18:18.107Z,97160.28
2023-04-01T03:19:19.898Z,97153.81
2023-04-01T03:20:21.748Z,97163.00
2023-04-01T03:21:25.667Z,97158.41
2023-04-01T03:22:27.516Z,97157.13
2023-04-01T03:23:29.377Z,97155.72
2023-04-01T03:24:31.194Z,97156.81
2023-04-01T03:25:33.104Z,97158.41
2023-04-01T03:26:34.971Z,97153.66
2023-04-01T03:27:36.885Z,97159.81
2023-04-01T03:28:38.859Z,97157.91
2023-04-01T03:29:41.063Z,97158.25
2023-04-01T03:30:43.091Z,97163.63
2023-04-01T03:31:44.989Z,97161.25
2023-04-01T03:32:46.922Z,97156.66
2023-04-01T03:33:48.957Z,97164.72
2023-04-01T03:34:50.769Z,97159.34
2023-04-01T03:35:53.279Z,97161.25
2023-04-01T03:36:55.556Z,97165.00
2023-04-01T03:37:57.446Z,97168.19
2023-04-01T03:38:59.238Z,97177.38
2023-04-01T03:40:01.057Z,97165.00
2023-04-01T03:41:03.299Z,97162.63
2023-04-01T03:42:07.521Z,97168.81
2023-04-01T03:43:10.926Z,97162.63
2023-04-01T03:44:13.808Z,97153.47
2023-04-01T03:45:15.966Z,97163.75
2023-04-01T03:46:21.707Z,97179.56
2023-04-01T03:47:23.685Z,97171.00
2023-04-01T03:48:26.715Z,97162.16
2023-04-01T03:49:28.578Z,97168.00
2023-04-01T03:50:31.230Z,97179.88
2023-04-01T03:51:34.084Z,97172.59
2023-04-01T03:52:36.232Z,97174.03
2023-04-01T03:53:38.283Z,97174.81
2023-04-01T03:54:40.444Z,97178.59
2023-04-01T03:55:42.297Z,97178.28
2023-04-01T03:56:44.116Z,97172.44
2023-04-01T03:57:45.974Z,97185.09
2023-04-01T03:58:47.861Z,97186.19
2023-04-01T03:59:49.696Z,97181.13
2023-04-01T04:00:51.554Z,97175.44
2023-04-01T04:01:53.333Z,97178.13
2023-04-01T04:02:56.813Z,97181.59
2023-04-01T04:03:59.181Z,97178.44
2023-04-01T04:05:01.099Z,97176.03
2023-04-01T04:06:02.947Z,97174.16
2023-04-01T04:07:04.983Z,97175.75
2023-04-01T04:08:06.751Z,97173.66
2023-04-01T04:09:08.525Z,97173.66
2023-04-01T04:10:10.769Z,97173.66
2023-04-01T04:11:12.882Z,97176.03
2023-04-01T04:12:14.671Z,97177.13
2023-04-01T04:13:16.479Z,97175.56
2023-04-01T04:14:18.529Z,97179.81
2023-04-01T04:15:20.789Z,97176.34
2023-04-01T04:16:22.729Z,97177.13
2023-04-01T04:17:24.831Z,97174.75
2023-04-01T04:18:26.775Z,97177.44
2023-04-01T04:19:34.855Z,97175.75
2023-04-01T04:20:36.690Z,97181.72
2023-04-01T04:21:38.493Z,97174.28
2023-04-01T04:22:40.511Z,97175.88
2023-04-01T04:23:43.845Z,97172.38
2023-04-01T04:24:45.733Z,97174.28
2023-04-01T04:26:09.397Z,97173.22
2023-04-01T04:27:11.178Z,97179.81
2023-04-01T04:28:13.030Z,97179.97
2023-04-01T04:29:14.901Z,97173.81
2023-04-01T04:30:16.986Z,97173.00
2023-04-01T04:31:24.695Z,97170.81
2023-04-01T04:32:27.104Z,97172.22
2023-04-01T04:33:29.823Z,97170.31
2023-04-01T04:34:31.647Z,97177.28
2023-04-01T04:35:34.574Z,97174.91
2023-04-01T04:36:36.527Z,97171.13
2023-04-01T04:37:38.338Z,97170.16
2023-04-01T04:38:40.372Z,97171.75
2023-04-01T04:39:42.198Z,97169.53
2023-04-01T04:40:44.708Z,97174.91
2023-04-01T04:41:46.681Z,97174.91
2023-04-01T04:42:48.553Z,97172.53
2023-04-01T04:43:57.977Z,97163.53
2023-04-01T04:44:59.718Z,97172.22
2023-04-01T04:46:07.707Z,97172.38
2023-04-01T04:47:09.605Z,97176.50
2023-04-01T04:48:17.092Z,97176.50
2023-04-01T04:49:18.973Z,97173.81
2023-04-01T04:50:20.765Z,97173.31
2023-04-01T04:51:23.039Z,97176.50
2023-04-01T04:52:24.866Z,97173.00
2023-04-01T04:53:27.258Z,97168.44
2023-04-01T04:54:29.123Z,97171.44
2023-04-01T04:55:31.385Z,97161.94
2023-04-01T04:56:34.036Z,97171.13
2023-04-01T04:57:35.824Z,97171.13
2023-04-01T04:58:40.096Z,97166.53
2023-04-01T04:59:42.035Z,97165.75
2023-04-01T05:00:44.579Z,97167.63
2023-04-01T05:01:46.516Z,97168.44
2023-04-01T05:02:48.680Z,97169.22
2023-04-01T05:03:50.989Z,97168.91
2023-04-01T05:04:52.865Z,97163.03
2023-04-01T05:05:55.283Z,97165.41
2023-04-01T05:06:57.181Z,97170.00
2023-04-01T05:07:59.298Z,97163.84
2023-04-01T05:09:01.139Z,97161.16
2023-04-01T05:10:03.160Z,97168.13
2023-04-01T05:12:13.949Z,97171.59
2023-04-01T05:13:15.836Z,97160.03
2023-04-01T05:14:18.330Z,97160.84
2023-04-01T05:15:20.283Z,97165.41
2023-04-01T05:16:22.710Z,97162.41
2023-04-01T05:17:24.639Z,97165.41
2023-04-01T05:18:26.472Z,97161.63
2023-04-01T05:19:28.314Z,97164.31
2023-04-01T05:20:30.560Z,97160.53
2023-04-01T05:21:32.793Z,97160.03
2023-04-01T05:22:34.816Z,97162.72
2023-04-01T05:23:37.446Z,97152.78
2023-04-01T05:24:39.246Z,97157.34
2023-04-01T05:25:41.127Z,97148.50
2023-04-01T05:26:42.859Z,97137.44
2023-04-01T05:27:44.601Z,97143.13
2023-04-01T05:28:46.384Z,97145.81
2023-04-01T05:29:48.224Z,97155.78
2023-04-01T05:30:50.187Z,97141.22
2023-04-01T05:31:52.507Z,97146.59
2023-04-01T05:32:54.333Z,97155.78
2023-04-01T05:33:57.027Z,97148.50
2023-04-01T05:34:58.904Z,97157.34
2023-04-01T05:36:16.870Z,97144.28
2023-04-01T05:37:19.842Z,97139.31
2023-04-01T05:38:21.916Z,97140.44
2023-04-01T05:39:24.466Z,97145.00
2023-04-01T05:40:26.438Z,97143.13
2023-04-01T05:41:28.264Z,97143.91
2023-04-01T05:42:30.316Z,97143.44
2023-04-01T05:43:32.164Z,97144.53
2023-04-01T05:44:34.882Z,97133.47
2023-04-01T05:45:36.732Z,97132.38
2023-04-01T05:46:38.681Z,97134.56
2023-04-01T05:47:40.690Z,97135.84
2023-04-01T05:48:42.574Z,97132.38
2023-04-01T05:49:44.408Z,97138.84
2023-04-01T05:50:46.188Z,97139.63
2023-04-01T05:51:48.135Z,97141.53
2023-04-01T05:52:50.230Z,97130.00
2023-04-01T05:53:52.162Z,97130.31
2023-04-01T05:54:53.967Z,97138.38
2023-04-01T05:55:55.804Z,97131.88
2023-04-01T05:56:57.749Z,97131.88
2023-04-01T05:57:59.602Z,97139.63
2023-04-01T05:59:01.407Z,97137.56
2023-04-01T06:00:05.431Z,97142.63
2023-04-01T06:01:16.327Z,97133.47
2023-04-01T06:02:19.667Z,97149.59
2023-04-01T06:03:21.561Z,97139.16
2023-04-01T06:04:24.050Z,97139.47
2023-04-01T06:05:31.026Z,97136.16
2023-04-01T06:06:39.711Z,97137.56
2023-04-01T06:07:41.535Z,97134.88
2023-04-01T06:08:44.325Z,97134.38
2023-04-01T06:09:46.748Z,97139.47
2023-04-01T06:11:00.812Z,97137.56
2023-04-01T06:12:59.958Z,97129.88
2023-04-01T06:14:33.085Z,97143.94
2023-04-01T06:16:02.410Z,97139.31
2023-04-01T06:17:35.421Z,97139.22
2023-04-01T06:19:09.516Z,97138.84
2023-04-01T06:20:44.102Z,97145.97
2023-04-01T06:22:23.166Z,97138.69
2023-04-01T06:23:29.638Z,97143.38
2023-04-01T06:25:06.372Z,97143.75
2023-04-01T06:26:19.137Z,97149.25
2023-04-01T06:27:54.435Z,97142.63
2023-04-01T06:29:06.801Z,97149.06
2023-04-01T06:30:44.735Z,97146.56
2023-04-01T06:32:11.415Z,97149.72
2023-04-01T06:33:22.149Z,97155.56
2023-04-01T06:34:54.131Z,97144.19
2023-04-01T06:36:12.463Z,97148.28
2023-04-01T06:37:56.792Z,97156.19
2023-04-01T06:39:49.248Z,97150.22
2023-04-01T06:41:24.590Z,97142.91
2023-04-01T06:43:16.882Z,97145.66
2023-04-01T06:44:51.126Z,97145.91
2023-04-01T06:46:11.797Z,97149.50
2023-04-01T06:47:35.120Z,97150.50
2023-04-01T06:48:55.433Z,97157.25
2023-04-01T06:50:21.451Z,97159.94
2023-04-01T06:51:50.379Z,97151.41
2023-04-01T06:53:07.682Z,97152.97
2023-04-01T06:54:21.242Z,97156.28
2023-04-01T06:55:38.794Z,97147.91
2023-04-01T06:56:47.420Z,97157.72
2023-04-01T06:57:56.162Z,97155.81
2023-04-01T06:59:18.179Z,97152.97
2023-04-01T07:00:31.152Z,97155.50
2023-04-01T07:01:51.804Z,97150.13
2023-04-01T07:03:30.968Z,97158.72
2023-04-01T07:04:47.841Z,97156.47
2023-04-01T07:05:50.093Z,97162.59
2023-04-01T07:06:58.924Z,97152.66
2023-04-01T07:08:07.086Z,97156.59
2023-04-01T07:09:20.208Z,97165.47
2023-04-01T07:10:37.223Z,97149.03
2023-04-01T07:11:40.966Z,97152.66
2023-04-01T07:12:59.458Z,97151.09
2023-04-01T07:14:05.609Z,97152.81
2023-04-01T07:15:56.666Z,97155.72
2023-04-01T07:17:13.073Z,97151.88
2023-04-01T07:18:35.999Z,97162.03
2023-04-01T07:19:55.067Z,97144.13
2023-04-01T07:20:58.829Z,97146.16
2023-04-01T07:22:31.224Z,97160.63
2023-04-01T07:23:45.670Z,97134.47
2023-04-01T07:24:48.633Z,97140.78
2023-04-01T07:26:01.377Z,97147.44
2023-04-01T07:27:03.934Z,97143.78
2023-04-01T07:28:17.657Z,97156.28
2023-04-01T07:29:19.868Z,97159.91
2023-04-01T07:30:25.492Z,97152.13
2023-04-01T07:32:05.617Z,97152.34
2023-04-01T07:33:20.781Z,97162.16
2023-04-01T07:34:43.229Z,97157.09
2023-04-01T07:36:26.210Z,97153.34
2023-04-01T07:37:54.719Z,97160.13
2023-04-01T07:39:31.821Z,97158.56
2023-04-01T07:41:02.241Z,97160.13
2023-04-01T07:42:36.163Z,97157.09
2023-04-01T07:43:46.785Z,97167.38
2023-04-01T07:45:23.428Z,97169.91
2023-04-01T07:46:43.758Z,97161.81
2023-04-01T07:47:51.375Z,97162.09
2023-04-01T07:49:18.210Z,97170.06
2023-04-01T07:50:29.688Z,97164.50
2023-04-01T07:51:46.742Z,97160.19
2023-04-01T07:53:02.602Z,97169.25
2023-04-01T07:54:27.376Z,97156.28
2023-04-01T07:55:39.048Z,97158.03
2023-04-01T07:56:55.733Z,97167.66
2023-04-01T07:58:11.477Z,97167.47
2023-04-01T07:59:30.738Z,97167.38
2023-04-01T08:01:02.199Z,97169.13
2023-04-01T08:02:22.972Z,97165.41
2023-04-01T08:03:45.135Z,97164.66
2023-04-01T08:05:09.454Z,97166.41
2023-04-01T08:06:39.302Z,97165.47
2023-04-01T08:07:54.153Z,97171.47
2023-04-01T08:09:04.698Z,97170.16
2023-04-01T08:10:50.202Z,97171.63
2023-04-01T08:12:10.163Z,97172.44
2023-04-01T08:13:36.298Z,97170.16
2023-04-01T08:15:05.353Z,97156.13
2023-04-01T08:16:30.979Z,97176.53
2023-04-01T08:17:57.264Z,97181.28
2023-04-01T08:19:53.004Z,97181.75
2023-04-01T08:21:01.536Z,97173.38
2023-04-01T08:22:13.370Z,97167.00
2023-04-01T08:23:25.286Z,97168.56
2023-04-01T08:24:48.055Z,97184.13
2023-04-01T08:26:06.577Z,97167.47
2023-04-01T08:27:22.561Z,97189.97
2023-04-01T08:28:31.122Z,97196.75
2023-04-01T08:29:59.570Z,97200.91
2023-04-01T08:31:12.326Z,97207.19
2023-04-01T08:32:24.547Z,97199.44
2023-04-01T08:33:30.839Z,97194.66
2023-04-01T08:34:39.650Z,97210.19
2023-04-01T08:35:54.630Z,97194.88
2023-04-01T08:37:33.556Z,97198.09
2023-04-01T08:38:43.985Z,97189.97
2023-04-01T08:40:13.502Z,97188.69
2023-04-01T08:41:45.876Z,97186.56
2023-04-01T08:42:57.761Z,97184.59
2023-04-01T08:44:43.697Z,97182.56
2023-04-01T08:46:07.415Z,97177.19
2023-04-01T08:48:09.491Z,97177.84
2023-04-01T08:49:39.364Z,97185.44
2023-04-01T08:51:26.157Z,97172.78
2023-04-01T08:52:38.241Z,97178.44
2023-04-01T08:53:57.934Z,97182.53
2023-04-01T08:55:37.392Z,97182.38
2023-04-01T08:57:01.422Z,97189.84
2023-04-01T08:58:38.825Z,97175.13
2023-04-01T09:00:14.189Z,97185.75
2023-04-01T09:01:47.725Z,97172.31
2023-04-01T09:03:16.789Z,97173.84
2023-04-01T09:04:56.687Z,97176.28
2023-04-01T09:06:15.015Z,97178.75
2023-04-01T09:07:50.276Z,97171.63
2023-04-01T09:09:21.625Z,97174.50
2023-04-01T09:10:47.696Z,97183.19
2023-04-01T09:12:51.886Z,97174.19
2023-04-01T09:14:07.612Z,97177.94
2023-04-01T09:15:33.844Z,97183.50
2023-04-01T09:17:03.514Z,97180.81
2023-04-01T09:18:23.271Z,97174.75
2023-04-01T09:19:49.662Z,97181.59
2023-04-01T09:21:49.783Z,97179.88
2023-04-01T09:23:09.264Z,97179.03
2023-04-01T09:24:41.285Z,97175.84
2023-04-01T09:25:51.816Z,97176.78
2023-04-01T09:27:29.493Z,97178.22
2023-04-01T09:28:43.132Z,97183.13
2023-04-01T09:30:12.481Z,97174.16
2023-04-01T09:32:03.431Z,97172.75
2023-04-01T09:33:14.098Z,97184.72
2023-04-01T09:34:54.298Z,97188.97
2023-04-01T09:35:56.611Z,97189.13
2023-04-01T09:37:01.286Z,97186.56
2023-04-01T09:38:40.759Z,97167.78
2023-04-01T09:40:16.388Z,97176.53
2023-04-01T09:42:01.648Z,97186.19
2023-04-01T09:43:37.208Z,97176.22
2023-04-01T09:45:01.693Z,97174.25
2023-04-01T09:46:33.399Z,97185.81
2023-04-01T09:48:32.412Z,97186.66
2023-04-01T09:50:07.908Z,97179.53
2023-04-01T09:51:46.967Z,97183.91
2023-04-01T09:53:02.164Z,97188.63
2023-04-01T09:54:50.556Z,97184.13
2023-04-01T09:56:10.072Z,97190.53
2023-04-01T09:57:55.864Z,97188.06
2023-04-01T09:59:25.649Z,97181.44
2023-04-01T10:01:10.734Z,97194.34
2023-04-01T10:02:46.466Z,97189.13
2023-04-01T10:04:25.457Z,97172.84
2023-04-01T10:05:59.216Z,97185.75
2023-04-01T10:07:31.845Z,97185.00
2023-04-01T10:09:16.285Z,97213.94
2023-04-01T10:10:29.173Z,97196.78
2023-04-01T10:11:49.122Z,97198.81
2023-04-01T10:13:14.962Z,97200.00
2023-04-01T10:14:44.446Z,97192.03
2023-04-01T10:16:02.530Z,97198.59
2023-04-01T10:17:40.647Z,97192.75
2023-04-01T10:19:39.894Z,97197.56
2023-04-01T10:21:15.798Z,97201.88
2023-04-01T10:23:20.236Z,97194.63
2023-04-01T10:25:11.684Z,97192.81
2023-04-01T10:26:56.419Z,97191.53
2023-04-01T10:28:39.711Z,97203.38
2023-04-01T10:30:15.283Z,97216.13
2023-04-01T10:31:56.379Z,97218.50
2023-04-01T10:33:38.714Z,97205.38
2023-04-01T10:35:17.219Z,97209.25
2023-04-01T10:36:52.842Z,97207.75
2023-04-01T10:38:03.591Z,97212.78
2023-04-01T10:39:23.514Z,97213.13
2023-04-01T10:40:45.962Z,97212.66
2023-04-01T10:42:31.159Z,97214.94
2023-04-01T10:44:20.410Z,97208.94
2023-04-01T10:45:58.972Z,97204.66
2023-04-01T10:47:26.579Z,97216.22
2023-04-01T10:49:18.476Z,97201.66
2023-04-01T10:51:12.980Z,97216.38
2023-04-01T10:52:51.035Z,97211.13
2023-04-01T10:54:24.347Z,97218.09
2023-04-01T10:56:00.263Z,97209.41
2023-04-01T10:57:41.726Z,97200.25
2023-04-01T10:59:46.531Z,97208.84
2023-04-01T11:01:37.847Z,97209.66
2023-04-01T11:03:04.203Z,97209.13
2023-04-01T11:04:53.940Z,97203.84
2023-04-01T11:06:25.979Z,97204.56
2023-04-01T11:08:07.076Z,97214.00
2023-04-01T11:10:19.821Z,97206.03
2023-04-01T11:11:36.731Z,97211.13
2023-04-01T11:13:09.291Z,97218.19
2023-04-01T11:14:13.908Z,97193.44
2023-04-01T11:16:00.742Z,97216.13
2023-04-01T11:17:32.573Z,97212.81
2023-04-01T11:19:05.580Z,97210.75
2023-04-01T11:20:41.400Z,97201.34
2023-04-01T11:22:39.459Z,97213.31
2023-04-01T11:24:07.889Z,97220.47
2023-04-01T11:25:31.270Z,97216.50
2023-04-01T11:27:00.301Z,97213.69
2023-04-01T11:28:29.391Z,97210.13
2023-04-01T11:30:12.578Z,97222.16
2023-04-01T11:31:55.156Z,97222.66
2023-04-01T11:33:09.943Z,97218.00
2023-04-01T11:34:49.890Z,97222.34
2023-04-01T11:36:21.899Z,97221.84
2023-04-01T11:37:59.316Z,97226.44
2023-04-01T11:39:25.924Z,97228.63
2023-04-01T11:40:55.868Z,97227.38
2023-04-01T11:42:27.223Z,97217.28
2023-04-01T11:44:11.182Z,97230.41
2023-04-01T11:45:39.448Z,97229.75
2023-04-01T11:47:12.906Z,97232.13
2023-04-01T11:48:55.605Z,97221.84
2023-04-01T11:50:29.212Z,97223.63
2023-04-01T11:52:09.614Z,97224.44
2023-04-01T11:53:51.407Z,97225.81
2023-04-01T11:55:05.647Z,97229.91
2023-04-01T11:56:44.001Z,97237.97
2023-04-01T11:58:20.236Z,97236.88
2023-04-01T11:59:48.010Z,97239.56
2023-04-01T12:01:07.908Z,97230.06
2023-04-01T12:02:37.178Z,97235.97
2023-04-01T12:03:52.832Z,97243.34
2023-04-01T12:05:37.027Z,97254.28
2023-04-01T12:06:56.248Z,97241.47
2023-04-01T12:08:04.265Z,97236.41
2023-04-01T12:09:23.612Z,97240.34
2023-04-01T12:10:45.306Z,97248.41
2023-04-01T12:12:18.660Z,97251.13
2023-04-01T12:14:00.833Z,97256.69
2023-04-01T12:15:25.669Z,97254.78
2023-04-01T12:16:45.741Z,97250.00
2023-04-01T12:18:06.040Z,97255.91
2023-04-01T12:19:32.162Z,97249.84
2023-04-01T12:20:57.786Z,97249.13
2023-04-01T12:22:24.754Z,97249.91
2023-04-01T12:24:03.733Z,97252.28
2023-04-01T12:25:27.353Z,97255.03
2023-04-01T12:27:03.664Z,97251.50
2023-04-01T12:28:51.155Z,97245.63
2023-04-01T12:30:38.717Z,97247.22
2023-04-01T12:32:26.336Z,97260.03
2023-04-01T12:34:08.643Z,97260.34
2023-04-01T12:35:47.098Z,97266.22
2023-04-01T12:37:16.667Z,97270.31
2023-04-01T12:38:43.344Z,97272.13
2023-04-01T12:40:18.290Z,97268.41
2023-04-01T12:41:59.637Z,97274.88
2023-04-01T12:43:13.114Z,97264.69
2023-04-01T12:44:36.996Z,97274.34
2023-04-01T12:46:05.222Z,97271.03
2023-04-01T12:47:57.039Z,97275.69
2023-04-01T12:49:27.104Z,97272.19
2023-04-01T12:50:58.094Z,97279.41
2023-04-01T12:52:31.290Z,97270.63
2023-04-01T12:54:20.516Z,97272.69
2023-04-01T12:55:41.363Z,97271.41
2023-04-01T12:56:49.217Z,97271.81
2023-04-01T12:58:11.909Z,97270.41
2023-04-01T12:59:34.354Z,97277.56
2023-04-01T13:01:19.908Z,97274.75
2023-04-01T13:02:50.971Z,97278.06
2023-04-01T13:04:41.344Z,97270.06
2023-04-01T13:06:31.133Z,97270.38
2023-04-01T13:07:54.070Z,97280.56
2023-04-01T13:09:32.774Z,97270.78
2023-04-01T13:10:54.847Z,97268.91
2023-04-01T13:12:25.598Z,97277.16
2023-04-01T13:14:24.964Z,97280.03
2023-04-01T13:15:56.988Z,97280.03
2023-04-01T13:17:45.426Z,97269.75
2023-04-01T13:19:09.303Z,97288.88
2023-04-01T13:20:11.153Z,97277.28
2023-04-01T13:22:01.169Z,97286.06
2023-04-01T13:23:35.221Z,97286.06
2023-04-01T13:24:48.377Z,97280.66
2023-04-01T13:26:15.318Z,97287.00
2023-04-01T13:27:41.607Z,97290.31
2023-04-01T13:29:27.305Z,97289.53
2023-04-01T13:30:38.199Z,97297.25
2023-04-01T13:32:18.305Z,97304.78
2023-04-01T13:33:38.286Z,97299.22
2023-04-01T13:34:48.508Z,97304.72
2023-04-01T13:36:13.871Z,97300.59
2023-04-01T13:37:54.666Z,97306.97
2023-04-01T13:39:14.215Z,97301.91
2023-04-01T13:40:36.495Z,97307.78
2023-04-01T13:42:13.885Z,97305.75
2023-04-01T13:43:51.316Z,97297.19
2023-04-01T13:45:06.327Z,97303.50
2023-04-01T13:46:37.798Z,97302.88
2023-04-01T13:48:27.618Z,97308.91
2023-04-01T13:50:03.998Z,97310.03
2023-04-01T13:51:24.099Z,97304.00
2023-04-01T13:53:16.117Z,97320.66
2023-04-01T13:54:40.689Z,97312.06
2023-04-01T13:56:30.279Z,97323.16
2023-04-01T13:58:02.889Z,97310.72
2023-04-01T13:59:35.281Z,97325.38
2023-04-01T14:00:44.823Z,97325.81
2023-04-01T14:02:23.997Z,97312.72
2023-04-01T14:03:38.327Z,97320.78
2023-04-01T14:04:42.916Z,97329.28
2023-04-01T14:06:13.941Z,97322.97
2023-04-01T14:07:59.128Z,97328.59
2023-04-01T14:09:24.061Z,97323.78
2023-04-01T14:11:16.443Z,97330.50
2023-04-01T14:12:31.547Z,97327.47
2023-04-01T14:14:03.964Z,97327.47
2023-04-01T14:16:04.372Z,97328.28
2023-04-01T14:17:22.495Z,97330.63
2023-04-01T14:19:09.325Z,97331.00
2023-04-01T14:20:57.034Z,97314.84
2023-04-01T14:22:32.536Z,97324.16
2023-04-01T14:23:51.684Z,97315.09
2023-04-01T14:25:26.645Z,97326.84
2023-04-01T14:26:46.513Z,97327.56
2023-04-01T14:28:18.987Z,97323.47
2023-04-01T14:29:38.198Z,97333.44
2023-04-01T14:30:58.705Z,97334.44
2023-04-01T14:32:47.694Z,97324.63
2023-04-01T14:34:06.488Z,97316.88
2023-04-01T14:35:11.558Z,97333.44
2023-04-01T14:36:58.244Z,97332.56
2023-04-01T14:38:25.951Z,97332.84
2023-04-01T14:40:07.293Z,97341.25
2023-04-01T14:41:17.854Z,97331.53
2023-04-01T14:42:28.577Z,97333.91
2023-04-01T14:43:55.904Z,97334.13
2023-04-01T14:45:27.841Z,97330.19
2023-04-01T14:47:03.419Z,97344.75
2023-04-01T14:48:28.025Z,97342.38
2023-04-01T14:49:44.309Z,97342.97
2023-04-01T14:50:51.864Z,97349.25
2023-04-01T14:51:55.370Z,97348.28
2023-04-01T14:53:12.770Z,97351.66
2023-04-01T14:54:24.048Z,97339.28
2023-04-01T14:55:53.118Z,97341.75
2023-04-01T14:57:26.469Z,97341.75
2023-04-01T14:58:51.591Z,97344.94
2023-04-01T15:00:20.003Z,97345.53
2023-04-01T15:01:49.349Z,97339.97
2023-04-01T15:03:09.682Z,97343.94
2023-04-01T15:04:38.453Z,97347.88
2023-04-01T15:06:02.257Z,97344.44
2023-04-01T15:07:22.192Z,97352.31
2023-04-01T15:08:34.636Z,97345.19
2023-04-01T15:09:47.992Z,97341.72
2023-04-01T15:10:55.603Z,97344.97
2023-04-01T15:12:35.734Z,97347.25